Time;durP1;ratioP1;P1;durP2;ratioP2;P2;SDS_P1;SDS_P2;PMS_P1;PMS_P2;Temp;Humidity;BMP_temperature;BMP_pressure;BME280_temperature;BME280_humidity;BME280_pressure;Samples;Min_cycle;Max_cycle;Signal;HPM_P1;HPM_P2
2021/07/24 16:28:18;;;;;;;0.40;0.30;;;25.10;99.90;;;;;;5074296;27;20380;-74
2021/07/24 16:30:45;;;;;;;0.40;0.20;;;25.10;96.60;;;;;;5074459;28;20477;-76
2021/07/24 16:33:11;;;;;;;0.40;0.20;;;25.00;99.80;;;;;;5074420;28;20875;-76
2021/07/24 16:35:37;;;;;;;0.40;0.20;;;24.90;99.10;;;;;;5074153;28;20504;-76
2021/07/24 16:38:02;;;;;;;0.40;0.20;;;25.00;96.40;;;;;;5076349;28;20390;-76
2021/07/24 16:40:28;;;;;;;0.40;0.30;;;25.00;97.00;;;;;;5075249;28;20764;-76
2021/07/24 16:42:54;;;;;;;0.40;0.20;;;25.00;97.10;;;;;;5073064;28;20920;-76
2021/07/24 16:45:19;;;;;;;0.40;0.30;;;25.00;97.80;;;;;;5074476;28;20417;-76
2021/07/24 16:47:45;;;;;;;0.40;0.30;;;24.80;99.90;;;;;;5074902;28;20817;-76
2021/07/24 16:50:11;;;;;;;0.40;0.30;;;24.70;99.90;;;;;;5075282;28;20383;-77
2021/07/24 16:52:36;;;;;;;0.40;0.20;;;24.60;99.90;;;;;;5072247;28;20403;-75
2021/07/24 16:55:02;;;;;;;0.40;0.20;;;24.50;99.90;;;;;;5074844;28;20383;-75
2021/07/24 16:57:28;;;;;;;0.40;0.22;;;24.40;99.90;;;;;;5075605;28;20444;-75
2021/07/24 16:59:54;;;;;;;0.40;0.20;;;24.40;99.90;;;;;;5074432;28;20470;-76
2021/07/24 17:02:21;;;;;;;0.40;0.20;;;24.10;99.90;;;;;;5074826;28;20432;-76
2021/07/24 17:04:46;;;;;;;0.40;0.20;;;23.70;99.90;;;;;;5072671;28;20393;-77
2021/07/24 17:07:12;;;;;;;0.50;0.30;;;23.10;99.90;;;;;;5073809;28;20414;-76
2021/07/24 17:09:37;;;;;;;0.40;0.30;;;22.90;99.90;;;;;;5075540;28;20485;-76
2021/07/24 17:12:03;;;;;;;0.40;0.20;;;22.80;99.90;;;;;;5072419;28;20531;-75
2021/07/24 17:14:29;;;;;;;0.40;0.30;;;22.70;99.90;;;;;;5072938;28;20379;-75
2021/07/24 17:16:55;;;;;;;0.40;0.25;;;22.50;99.90;;;;;;5074584;28;20394;-75
2021/07/24 17:19:20;;;;;;;0.40;0.30;;;22.40;99.90;;;;;;5075391;28;20382;-75
2021/07/24 17:21:46;;;;;;;0.40;0.20;;;22.30;99.90;;;;;;5074561;28;20394;-77
2021/07/24 17:24:13;;;;;;;0.40;0.20;;;22.30;99.90;;;;;;5073962;28;20394;-75
2021/07/24 17:26:38;;;;;;;0.40;0.30;;;22.40;99.90;;;;;;5080719;28;20440;-74
2021/07/24 17:29:04;;;;;;;0.40;0.30;;;22.30;99.90;;;;;;5076444;28;20385;-75
2021/07/24 17:31:30;;;;;;;0.40;0.20;;;22.20;99.90;;;;;;5076347;28;20393;-75
2021/07/24 17:33:58;;;;;;;0.40;0.20;;;22.20;99.90;;;;;;5093419;28;20381;-75
2021/07/24 17:36:24;;;;;;;0.40;0.20;;;22.20;99.90;;;;;;5093976;28;20409;-77
2021/07/24 17:38:51;;;;;;;0.40;0.30;;;22.50;99.90;;;;;;5084818;28;20374;-75
2021/07/24 17:41:19;;;;;;;0.40;0.30;;;22.70;99.90;;;;;;5080838;28;20400;-74
2021/07/24 17:43:49;;;;;;;0.40;0.30;;;22.40;99.90;;;;;;5078335;28;20404;-74
2021/07/24 17:46:15;;;;;;;0.40;0.30;;;22.20;99.90;;;;;;5080437;28;20445;-75
2021/07/24 17:48:43;;;;;;;0.40;0.30;;;22.10;99.90;;;;;;5080745;28;20803;-74
2021/07/24 17:51:10;;;;;;;0.90;0.70;;;22.70;99.90;;;;;;5080522;28;20514;-75
2021/07/24 17:53:36;;;;;;;0.40;0.30;;;21.80;99.90;;;;;;5079396;28;20397;-74
2021/07/24 17:56:03;;;;;;;0.40;0.20;;;21.80;99.90;;;;;;5079392;28;20772;-75
2021/07/24 17:58:28;;;;;;;0.40;0.20;;;21.70;99.90;;;;;;5080494;28;20386;-73
2021/07/24 18:00:54;;;;;;;0.40;0.30;;;22.30;99.90;;;;;;5079621;28;20398;-73
2021/07/24 18:03:19;;;;;;;0.40;0.20;;;22.10;99.90;;;;;;5079466;28;20382;-74
2021/07/24 18:05:46;;;;;;;0.40;0.30;;;21.90;99.90;;;;;;5079704;28;20428;-74
2021/07/24 18:08:12;;;;;;;0.40;0.30;;;21.80;99.90;;;;;;5080344;28;20414;-76
2021/07/24 18:10:39;;;;;;;0.40;0.20;;;21.70;99.90;;;;;;5080539;28;20491;-75
2021/07/24 18:13:05;;;;;;;0.40;0.20;;;21.60;99.90;;;;;;5077548;28;20419;-76
2021/07/24 18:15:32;;;;;;;0.40;0.20;;;21.50;99.90;;;;;;5078451;28;20390;-76
2021/07/24 18:17:58;;;;;;;0.40;0.30;;;21.40;99.90;;;;;;5062174;28;20405;-76
2021/07/24 18:20:24;;;;;;;0.40;0.30;;;21.20;99.90;;;;;;5081480;28;20407;-74
2021/07/24 18:22:51;;;;;;;0.40;0.20;;;21.30;99.90;;;;;;5080322;28;20792;-74
2021/07/24 18:25:18;;;;;;;0.40;0.20;;;21.40;99.90;;;;;;5081513;28;20390;-76
2021/07/24 18:27:44;;;;;;;0.40;0.20;;;21.40;99.90;;;;;;5081768;28;20440;-76
2021/07/24 18:30:10;;;;;;;0.40;0.20;;;21.40;99.90;;;;;;5082234;28;20451;-75
2021/07/24 18:32:39;;;;;;;0.40;0.30;;;21.30;99.90;;;;;;5079877;28;20381;-75
2021/07/24 18:35:06;;;;;;;0.40;0.20;;;21.30;99.90;;;;;;5061122;28;21067;-76
2021/07/24 18:37:32;;;;;;;0.40;0.30;;;21.20;99.90;;;;;;5079320;28;20389;-74
2021/07/24 18:39:58;;;;;;;0.40;0.20;;;21.20;99.90;;;;;;5059273;28;20398;-75
2021/07/24 18:42:25;;;;;;;0.40;0.30;;;21.10;99.90;;;;;;5078398;28;20386;-75
2021/07/24 18:44:50;;;;;;;0.40;0.20;;;21.10;99.90;;;;;;5057092;28;20440;-74
2021/07/24 18:47:16;;;;;;;0.40;0.20;;;21.00;99.90;;;;;;5077826;28;20876;-73
2021/07/24 18:49:42;;;;;;;0.40;0.30;;;21.00;99.90;;;;;;5058647;28;20396;-73
2021/07/24 18:52:11;;;;;;;0.40;0.20;;;20.80;99.90;;;;;;5076931;28;20374;-75
2021/07/24 18:54:39;;;;;;;0.40;0.20;;;20.00;99.90;;;;;;5076164;28;20485;-73
2021/07/24 18:57:05;;;;;;;0.40;0.20;;;20.80;99.90;;;;;;5076782;28;20564;-74
2021/07/24 18:59:31;;;;;;;0.40;0.20;;;20.70;99.90;;;;;;5077959;28;21024;-75
2021/07/24 19:01:57;;;;;;;0.40;0.20;;;20.80;99.90;;;;;;5077038;28;20390;-75
2021/07/24 19:04:22;;;;;;;0.40;0.20;;;20.70;99.90;;;;;;5076336;28;20390;-75
2021/07/24 19:06:48;;;;;;;0.40;0.30;;;20.70;99.90;;;;;;5077526;28;21003;-76
2021/07/24 19:09:16;;;;;;;0.40;0.20;;;20.60;99.90;;;;;;5077292;28;20948;-75
2021/07/24 19:11:42;;;;;;;0.40;0.30;;;20.70;99.90;;;;;;5077531;28;20494;-76
2021/07/24 19:14:08;;;;;;;0.40;0.20;;;20.70;99.90;;;;;;5056587;28;21196;-74
2021/07/24 19:16:33;;;;;;;0.40;0.30;;;20.60;99.90;;;;;;5076926;28;20447;-74
2021/07/24 19:18:59;;;;;;;0.40;0.30;;;20.60;99.90;;;;;;5058481;28;20404;-74
2021/07/24 19:21:26;;;;;;;0.40;0.30;;;20.50;99.90;;;;;;5077235;28;20386;-74
2021/07/24 19:23:53;;;;;;;0.40;0.30;;;20.50;99.90;;;;;;5074784;28;20397;-74
2021/07/24 19:26:19;;;;;;;0.40;0.30;;;20.40;99.90;;;;;;5076346;28;20442;-74
2021/07/24 19:28:46;;;;;;;0.40;0.22;;;20.40;99.90;;;;;;5059177;28;21289;-73
2021/07/24 19:31:12;;;;;;;0.40;0.30;;;20.30;99.90;;;;;;5076423;28;20389;-73
2021/07/24 19:33:38;;;;;;;0.40;0.30;;;20.30;99.90;;;;;;5075361;28;20886;-74
2021/07/24 19:36:05;;;;;;;0.63;0.43;;;20.20;99.90;;;;;;5076373;28;20408;-74
2021/07/24 19:38:31;;;;;;;0.40;0.30;;;20.20;99.90;;;;;;5077162;28;20781;-73
2021/07/24 19:40:57;;;;;;;0.40;0.22;;;20.20;99.90;;;;;;5076121;28;20386;-73
2021/07/24 19:43:22;;;;;;;0.40;0.20;;;20.20;99.90;;;;;;5056598;28;20405;-75
2021/07/24 19:45:48;;;;;;;0.40;0.20;;;20.30;99.90;;;;;;5077393;28;20370;-74
2021/07/24 19:48:14;;;;;;;0.40;0.30;;;20.20;99.90;;;;;;5076684;28;20898;-73
2021/07/24 19:50:40;;;;;;;0.40;0.30;;;20.20;99.90;;;;;;5076852;28;20386;-74
2021/07/24 19:53:05;;;;;;;0.40;0.30;;;20.00;99.90;;;;;;5073863;28;20386;-74
2021/07/24 19:55:34;;;;;;;0.40;0.30;;;20.00;99.90;;;;;;5076591;28;20467;-73
2021/07/24 19:58:00;;;;;;;0.40;0.22;;;20.10;99.90;;;;;;5076155;28;20509;-75
2021/07/24 20:00:26;;;;;;;0.40;0.30;;;20.30;99.90;;;;;;5077150;28;20382;-73
2021/07/24 20:02:52;;;;;;;0.40;0.30;;;20.20;99.90;;;;;;5074156;28;20405;-75
2021/07/24 20:05:23;;;;;;;0.40;0.20;;;20.20;99.90;;;;;;5076325;28;21156;-75
2021/07/24 20:07:53;;;;;;;0.40;0.30;;;20.20;99.90;;;;;;5076953;28;20770;-74
2021/07/24 20:10:19;;;;;;;0.40;0.30;;;20.10;99.90;;;;;;5076534;28;20386;-75
2021/07/24 20:12:45;;;;;;;0.40;0.20;;;20.30;99.90;;;;;;5075264;28;20416;-75
2021/07/24 20:15:13;;;;;;;0.40;0.20;;;20.40;99.90;;;;;;5076010;28;20366;-74
2021/07/24 20:17:39;;;;;;;0.40;0.30;;;20.30;99.90;;;;;;5077030;28;20390;-73
2021/07/24 20:20:06;;;;;;;0.40;0.30;;;20.70;99.90;;;;;;5075767;28;20791;-74
2021/07/24 20:22:32;;;;;;;0.40;0.20;;;20.20;99.90;;;;;;5075735;28;20472;-74
2021/07/24 20:24:57;;;;;;;0.40;0.20;;;20.10;99.90;;;;;;5057344;28;20435;-75
2021/07/24 20:27:23;;;;;;;0.40;0.20;;;20.10;99.90;;;;;;5076225;28;20461;-76
2021/07/24 20:29:49;;;;;;;0.40;0.30;;;20.10;99.90;;;;;;5076846;28;20385;-75
2021/07/24 20:32:14;;;;;;;0.40;0.30;;;20.10;99.90;;;;;;5075703;28;20386;-73
2021/07/24 20:34:40;;;;;;;0.40;0.30;;;20.10;99.90;;;;;;5074734;28;20400;-74
2021/07/24 20:37:06;;;;;;;0.40;0.20;;;20.20;99.90;;;;;;5075818;28;21339;-75
2021/07/24 20:39:32;;;;;;;0.40;0.30;;;20.10;99.90;;;;;;5058365;28;20459;-73
2021/07/24 20:41:58;;;;;;;0.40;0.30;;;20.00;99.90;;;;;;5076051;28;20390;-75
2021/07/24 20:44:23;;;;;;;0.40;0.30;;;20.00;99.90;;;;;;5074503;28;21293;-74
2021/07/24 20:46:49;;;;;;;0.40;0.20;;;20.00;99.90;;;;;;5057985;28;20464;-74
2021/07/24 20:49:15;;;;;;;0.40;0.30;;;20.00;99.90;;;;;;5076026;28;20814;-73
2021/07/24 20:51:42;;;;;;;0.40;0.30;;;19.90;99.90;;;;;;5076339;28;20382;-76
2021/07/24 20:54:08;;;;;;;0.40;0.30;;;19.90;99.90;;;;;;5055241;28;20989;-76
2021/07/24 20:56:35;;;;;;;0.40;0.30;;;19.90;99.90;;;;;;5075525;28;20501;-76
2021/07/24 20:59:02;;;;;;;0.40;0.30;;;20.00;99.90;;;;;;5055740;28;20409;-75
2021/07/24 21:01:28;;;;;;;0.40;0.20;;;20.00;99.90;;;;;;5075712;28;20386;-75
2021/07/24 21:03:54;;;;;;;0.40;0.20;;;20.10;99.90;;;;;;5054027;28;20882;-77
2021/07/24 21:06:20;;;;;;;0.40;0.30;;;20.10;99.90;;;;;;5052742;28;20473;-76
2021/07/24 21:08:47;;;;;;;0.40;0.20;;;19.90;99.90;;;;;;5074094;28;21133;-75
2021/07/24 21:11:13;;;;;;;0.40;0.30;;;19.90;99.90;;;;;;5056736;28;20385;-77
2021/07/24 21:13:39;;;;;;;0.40;0.40;;;19.80;99.90;;;;;;5075110;28;20390;-76
2021/07/24 21:16:05;;;;;;;0.40;0.30;;;19.70;99.90;;;;;;5078954;28;20512;-76
2021/07/24 21:18:31;;;;;;;0.40;0.30;;;19.70;99.90;;;;;;5079362;28;20389;-77
2021/07/24 21:20:57;;;;;;;0.40;0.22;;;19.70;99.90;;;;;;5079191;28;20390;-77
2021/07/24 21:23:22;;;;;;;0.40;0.20;;;19.80;99.90;;;;;;5076894;28;20393;-77
2021/07/24 21:25:48;;;;;;;0.40;0.30;;;19.90;99.90;;;;;;5078639;28;20393;-77
2021/07/24 21:28:15;;;;;;;0.40;0.30;;;20.00;99.90;;;;;;5078371;28;21039;-76
2021/07/24 21:30:41;;;;;;;0.40;0.20;;;19.80;99.90;;;;;;5079398;28;20442;-75
2021/07/24 21:33:08;;;;;;;0.40;0.20;;;19.70;99.90;;;;;;5077020;28;20382;-76
2021/07/24 21:35:35;;;;;;;0.40;0.30;;;19.70;99.90;;;;;;5078843;28;20418;-77
2021/07/24 21:38:01;;;;;;;0.40;0.20;;;19.80;99.90;;;;;;5079248;28;20390;-75
2021/07/24 21:40:27;;;;;;;0.40;0.20;;;19.70;99.90;;;;;;5079319;28;20723;-75
2021/07/24 21:42:53;;;;;;;0.40;0.30;;;19.70;99.90;;;;;;5073796;28;20386;-78
2021/07/24 21:45:19;;;;;;;0.40;0.20;;;19.70;99.90;;;;;;5074712;28;20387;-76
2021/07/24 21:47:45;;;;;;;0.40;0.20;;;19.50;99.90;;;;;;5059198;28;20463;-76
2021/07/24 21:50:11;;;;;;;0.40;0.30;;;19.60;99.90;;;;;;5060401;28;20502;-76
2021/07/24 21:52:37;;;;;;;0.40;0.30;;;19.50;99.90;;;;;;5077375;28;20385;-76
2021/07/24 21:55:06;;;;;;;0.40;0.20;;;19.60;99.90;;;;;;5079346;28;20746;-75
2021/07/24 21:57:33;;;;;;;0.40;0.20;;;19.40;99.90;;;;;;5079133;28;21054;-75
2021/07/24 21:59:59;;;;;;;0.40;0.30;;;19.50;99.90;;;;;;5078813;28;20411;-75
2021/07/24 22:02:25;;;;;;;0.40;0.30;;;19.50;99.90;;;;;;5079118;28;20387;-76
2021/07/24 22:04:50;;;;;;;0.40;0.20;;;18.80;99.90;;;;;;5077960;28;20390;-74
2021/07/24 22:07:16;;;;;;;0.40;0.20;;;19.40;99.90;;;;;;5077686;28;20433;-76
2021/07/24 22:09:42;;;;;;;0.40;0.30;;;19.50;99.90;;;;;;5077705;28;20960;-76
2021/07/24 22:12:08;;;;;;;0.40;0.20;;;19.50;99.90;;;;;;5059701;28;20405;-76
2021/07/24 22:14:37;;;;;;;0.40;0.30;;;19.40;99.90;;;;;;5058711;28;20406;-75
2021/07/24 22:17:04;;;;;;;0.40;0.20;;;19.40;99.90;;;;;;5078116;28;20404;-78
2021/07/24 22:19:30;;;;;;;0.40;0.30;;;19.50;99.90;;;;;;5079306;28;20386;-75
2021/07/24 22:21:57;;;;;;;0.40;0.20;;;19.30;99.90;;;;;;5079280;28;20397;-78
2021/07/24 22:24:24;;;;;;;0.40;0.30;;;19.30;99.90;;;;;;5076883;28;21185;-76
2021/07/24 22:26:50;;;;;;;0.40;0.20;;;19.30;99.90;;;;;;5077383;28;20444;-78
2021/07/24 22:29:16;;;;;;;0.40;0.20;;;19.40;99.90;;;;;;5076865;28;20393;-76
2021/07/24 22:31:43;;;;;;;0.40;0.20;;;19.50;99.90;;;;;;5060764;28;20390;-75
2021/07/24 22:34:09;;;;;;;0.40;0.20;;;19.40;99.90;;;;;;5058563;28;20402;-76
2021/07/24 22:36:34;;;;;;;0.40;0.30;;;19.40;99.90;;;;;;5078823;28;20447;-77
2021/07/24 22:39:00;;;;;;;0.40;0.30;;;19.30;99.90;;;;;;5060041;28;20397;-79
2021/07/24 22:41:26;;;;;;;0.40;0.30;;;19.40;99.90;;;;;;5079110;28;20492;-78
2021/07/24 22:43:51;;;;;;;0.40;0.20;;;19.50;99.90;;;;;;5058196;28;20487;-76
2021/07/24 22:46:17;;;;;;;0.40;0.30;;;19.30;99.90;;;;;;5084854;28;20471;-75
2021/07/24 22:48:43;;;;;;;0.40;0.20;;;19.30;99.90;;;;;;5112562;28;20703;-75
2021/07/24 22:51:08;;;;;;;0.40;0.20;;;19.40;99.90;;;;;;5111799;28;20804;-76
2021/07/24 22:53:39;;;;;;;0.40;0.20;;;19.30;99.90;;;;;;5111959;28;20388;-76
2021/07/24 22:56:05;;;;;;;0.40;0.20;;;19.30;99.90;;;;;;5111186;28;20400;-75
2021/07/24 22:58:31;;;;;;;0.40;0.20;;;19.20;99.90;;;;;;5112005;28;20372;-75
2021/07/24 23:00:57;;;;;;;0.40;0.20;;;19.30;99.90;;;;;;5111278;28;20399;-79
2021/07/24 23:03:23;;;;;;;0.40;0.25;;;19.20;99.90;;;;;;5111548;28;20377;-75
2021/07/24 23:05:48;;;;;;;0.40;0.30;;;19.10;99.90;;;;;;5111209;28;20384;-76
2021/07/24 23:08:14;;;;;;;0.40;0.20;;;19.20;99.90;;;;;;5098669;28;20406;-76
2021/07/24 23:10:40;;;;;;;0.40;0.20;;;19.10;99.90;;;;;;5091176;28;20743;-76
2021/07/24 23:13:05;;;;;;;0.40;0.30;;;19.20;99.90;;;;;;5090275;28;20382;-75
2021/07/24 23:15:31;;;;;;;0.40;0.20;;;19.20;99.90;;;;;;5091212;28;20382;-75
2021/07/24 23:17:57;;;;;;;0.40;0.20;;;19.10;99.90;;;;;;5091102;28;20390;-75
2021/07/24 23:20:22;;;;;;;0.40;0.30;;;19.10;99.90;;;;;;5090476;28;20473;-76
2021/07/24 23:22:48;;;;;;;0.40;0.20;;;19.00;99.90;;;;;;5090765;28;20386;-76
2021/07/24 23:25:14;;;;;;;0.40;0.30;;;19.00;99.90;;;;;;5090002;28;20734;-76
2021/07/24 23:27:40;;;;;;;0.40;0.30;;;19.10;99.90;;;;;;5090557;28;20478;-76
2021/07/24 23:30:06;;;;;;;0.40;0.30;;;19.00;99.90;;;;;;5090050;28;20379;-76
2021/07/24 23:32:32;;;;;;;0.40;0.20;;;18.90;99.90;;;;;;5090684;28;20370;-77
2021/07/24 23:34:57;;;;;;;0.40;0.30;;;18.90;99.90;;;;;;5090591;28;20378;-77
2021/07/24 23:37:23;;;;;;;0.40;0.20;;;18.90;99.90;;;;;;5089579;28;20777;-77
2021/07/24 23:39:48;;;;;;;0.40;0.20;;;18.80;99.90;;;;;;5090772;28;20739;-77
2021/07/24 23:42:14;;;;;;;0.40;0.30;;;18.80;99.90;;;;;;5089961;28;20375;-77
2021/07/24 23:44:40;;;;;;;0.40;0.20;;;18.90;99.90;;;;;;5091003;28;20374;-75
2021/07/24 23:47:05;;;;;;;0.40;0.20;;;18.90;99.90;;;;;;5090390;28;20412;-78
2021/07/24 23:49:35;;;;;;;0.40;0.30;;;18.90;99.90;;;;;;5091020;28;20374;-75
2021/07/24 23:52:02;;;;;;;0.40;0.20;;;18.80;99.90;;;;;;5090081;28;20396;-77
2021/07/24 23:54:28;;;;;;;0.40;0.30;;;18.90;99.90;;;;;;5072939;28;20382;-75
2021/07/24 23:56:54;;;;;;;0.40;0.20;;;18.90;99.90;;;;;;5090737;28;20869;-75
2021/07/24 23:59:20;;;;;;;0.40;0.20;;;18.80;99.90;;;;;;5089960;28;20626;-76
